sensor_id;sensor_type;location;lat;lon;timestamp;pressure;altitude;pressure_sealevel;temperature;humidity
36328;BME280;22354;50.012;8.264;2022-09-09T00:03:53;100248.81;;;16.32;100.00
36328;BME280;22354;50.012;8.264;2022-09-09T00:06:34;100242.97;;;16.29;100.00
36328;BME280;22354;50.012;8.264;2022-09-09T00:09:12;100240.06;;;16.30;100.00
36328;BME280;22354;50.012;8.264;2022-09-09T00:11:46;100237.09;;;16.25;100.00
36328;BME280;22354;50.012;8.264;2022-09-09T00:14:23;100231.56;;;16.33;100.00
36328;BME280;22354;50.012;8.264;2022-09-09T00:16:55;100222.19;;;16.08;100.00
36328;BME280;22354;50.012;8.264;2022-09-09T00:19:28;100226.47;;;16.23;100.00
36328;BME280;22354;50.012;8.264;2022-09-09T00:22:16;100228.03;;;16.33;100.00
36328;BME280;22354;50.012;8.264;2022-09-09T00:24:44;100224.41;;;16.26;100.00
36328;BME280;22354;50.012;8.264;2022-09-09T00:29:49;100224.69;;;16.31;100.00
36328;BME280;22354;50.012;8.264;2022-09-09T00:32:18;100224.38;;;16.19;100.00
36328;BME280;22354;50.012;8.264;2022-09-09T00:34:51;100222.19;;;16.08;100.00
36328;BME280;22354;50.012;8.264;2022-09-09T00:37:19;100229.22;;;16.02;100.00
36328;BME280;22354;50.012;8.264;2022-09-09T00:39:46;100234.34;;;16.18;100.00
36328;BME280;22354;50.012;8.264;2022-09-09T00:42:23;100231.22;;;15.93;100.00
36328;BME280;22354;50.012;8.264;2022-09-09T00:44:59;100227.03;;;15.91;100.00
36328;BME280;22354;50.012;8.264;2022-09-09T00:47:45;100230.19;;;15.95;100.00
36328;BME280;22354;50.012;8.264;2022-09-09T00:53:09;100226.75;;;16.07;100.00
36328;BME280;22354;50.012;8.264;2022-09-09T00:55:45;100223.03;;;16.08;100.00
36328;BME280;22354;50.012;8.264;2022-09-09T00:58:13;100229.09;;;15.89;100.00
36328;BME280;22354;50.012;8.264;2022-09-09T01:00:43;100218.22;;;15.82;100.00
36328;BME280;22354;50.012;8.264;2022-09-09T01:03:19;100224.13;;;15.92;100.00
36328;BME280;22354;50.012;8.264;2022-09-09T01:05:57;100231.91;;;15.81;100.00
36328;BME280;22354;50.012;8.264;2022-09-09T01:08:36;100226.31;;;16.04;100.00
36328;BME280;22354;50.012;8.264;2022-09-09T01:11:11;100227.84;;;16.13;100.00
36328;BME280;22354;50.012;8.264;2022-09-09T01:13:41;100210.38;;;16.37;100.00
36328;BME280;22354;50.012;8.264;2022-09-09T01:16:10;100208.91;;;16.34;100.00
36328;BME280;22354;50.012;8.264;2022-09-09T01:18:39;100212.00;;;16.31;100.00
36328;BME280;22354;50.012;8.264;2022-09-09T01:24:22;100194.94;;;16.31;100.00
36328;BME280;22354;50.012;8.264;2022-09-09T01:26:54;100192.16;;;15.96;100.00
36328;BME280;22354;50.012;8.264;2022-09-09T01:29:22;100202.59;;;15.78;100.00
36328;BME280;22354;50.012;8.264;2022-09-09T01:34:23;100212.03;;;15.88;100.00
36328;BME280;22354;50.012;8.264;2022-09-09T01:37:00;100216.97;;;15.85;100.00
36328;BME280;22354;50.012;8.264;2022-09-09T01:39:27;100221.16;;;15.87;100.00
36328;BME280;22354;50.012;8.264;2022-09-09T01:41:53;100228.22;;;15.88;100.00
36328;BME280;22354;50.012;8.264;2022-09-09T01:44:20;100227.66;;;15.72;100.00
36328;BME280;22354;50.012;8.264;2022-09-09T01:46:46;100222.53;;;15.77;100.00
36328;BME280;22354;50.012;8.264;2022-09-09T01:49:11;100218.91;;;15.70;100.00
36328;BME280;22354;50.012;8.264;2022-09-09T01:51:38;100222.34;;;15.78;100.00
36328;BME280;22354;50.012;8.264;2022-09-09T01:54:06;100234.66;;;15.66;100.00
36328;BME280;22354;50.012;8.264;2022-09-09T02:02:24;100235.84;;;15.78;100.00
36328;BME280;22354;50.012;8.264;2022-09-09T02:04:55;100238.97;;;15.46;100.00
36328;BME280;22354;50.012;8.264;2022-09-09T02:07:43;100232.34;;;15.48;100.00
36328;BME280;22354;50.012;8.264;2022-09-09T02:10:19;100239.31;;;15.57;100.00
36328;BME280;22354;50.012;8.264;2022-09-09T02:12:49;100237.56;;;15.65;100.00
36328;BME280;22354;50.012;8.264;2022-09-09T02:15:58;100242.56;;;15.68;100.00
36328;BME280;22354;50.012;8.264;2022-09-09T02:18:29;100242.84;;;15.58;100.00
36328;BME280;22354;50.012;8.264;2022-09-09T02:20:56;100239.44;;;15.64;100.00
36328;BME280;22354;50.012;8.264;2022-09-09T02:23:23;100245.75;;;15.56;100.00
36328;BME280;22354;50.012;8.264;2022-09-09T02:25:50;100251.81;;;15.44;100.00
36328;BME280;22354;50.012;8.264;2022-09-09T02:28:17;100231.50;;;15.48;100.00
36328;BME280;22354;50.012;8.264;2022-09-09T02:30:47;100235.59;;;15.58;100.00
36328;BME280;22354;50.012;8.264;2022-09-09T02:33:19;100235.72;;;15.50;100.00
36328;BME280;22354;50.012;8.264;2022-09-09T02:35:44;100232.88;;;15.37;100.00
36328;BME280;22354;50.012;8.264;2022-09-09T02:38:13;100231.00;;;15.38;100.00
36328;BME280;22354;50.012;8.264;2022-09-09T02:40:40;100230.91;;;15.31;100.00
36328;BME280;22354;50.012;8.264;2022-09-09T02:43:05;100232.50;;;15.25;100.00
36328;BME280;22354;50.012;8.264;2022-09-09T02:45:58;100221.13;;;15.30;100.00
36328;BME280;22354;50.012;8.264;2022-09-09T02:48:28;100224.13;;;15.20;100.00
36328;BME280;22354;50.012;8.264;2022-09-09T02:51:19;100221.00;;;15.02;100.00
36328;BME280;22354;50.012;8.264;2022-09-09T02:54:07;100212.03;;;15.16;100.00
36328;BME280;22354;50.012;8.264;2022-09-09T02:56:40;100201.81;;;15.12;100.00
36328;BME280;22354;50.012;8.264;2022-09-09T02:59:06;100207.19;;;15.26;100.00
36328;BME280;22354;50.012;8.264;2022-09-09T03:01:32;100201.63;;;15.49;100.00
36328;BME280;22354;50.012;8.264;2022-09-09T03:03:57;100198.91;;;15.28;100.00
36328;BME280;22354;50.012;8.264;2022-09-09T03:06:23;100205.03;;;15.37;100.00
36328;BME280;22354;50.012;8.264;2022-09-09T03:08:48;100207.03;;;15.13;100.00
36328;BME280;22354;50.012;8.264;2022-09-09T03:11:15;100207.03;;;15.13;100.00
36328;BME280;22354;50.012;8.264;2022-09-09T03:13:40;100198.16;;;15.19;100.00
36328;BME280;22354;50.012;8.264;2022-09-09T03:16:05;100205.69;;;15.39;100.00
36328;BME280;22354;50.012;8.264;2022-09-09T03:18:31;100203.72;;;15.32;100.00
36328;BME280;22354;50.012;8.264;2022-09-09T03:20:57;100204.44;;;15.41;100.00
36328;BME280;22354;50.012;8.264;2022-09-09T03:23:23;100205.53;;;15.47;100.00
36328;BME280;22354;50.012;8.264;2022-09-09T03:25:49;100213.72;;;15.53;100.00
36328;BME280;22354;50.012;8.264;2022-09-09T03:28:15;100210.56;;;15.65;100.00
36328;BME280;22354;50.012;8.264;2022-09-09T03:30:40;100214.34;;;15.70;100.00
36328;BME280;22354;50.012;8.264;2022-09-09T03:33:05;100220.53;;;15.64;100.00
36328;BME280;22354;50.012;8.264;2022-09-09T03:35:31;100219.38;;;15.58;100.00
36328;BME280;22354;50.012;8.264;2022-09-09T03:37:56;100232.44;;;15.55;100.00
36328;BME280;22354;50.012;8.264;2022-09-09T03:40:22;100224.25;;;15.63;100.00
36328;BME280;22354;50.012;8.264;2022-09-09T03:42:47;100228.63;;;15.49;100.00
36328;BME280;22354;50.012;8.264;2022-09-09T03:45:13;100222.91;;;15.59;100.00
36328;BME280;22354;50.012;8.264;2022-09-09T03:47:39;100230.47;;;15.49;100.00
36328;BME280;22354;50.012;8.264;2022-09-09T03:50:06;100232.03;;;15.58;100.00
36328;BME280;22354;50.012;8.264;2022-09-09T03:52:35;100225.75;;;15.51;100.00
36328;BME280;22354;50.012;8.264;2022-09-09T03:55:00;100227.53;;;15.44;100.00
36328;BME280;22354;50.012;8.264;2022-09-09T03:57:26;100226.78;;;15.50;100.00
36328;BME280;22354;50.012;8.264;2022-09-09T03:59:51;100220.47;;;15.43;100.00
36328;BME280;22354;50.012;8.264;2022-09-09T04:02:17;100225.09;;;15.49;100.00
36328;BME280;22354;50.012;8.264;2022-09-09T04:04:42;100208.56;;;15.73;100.00
36328;BME280;22354;50.012;8.264;2022-09-09T04:07:07;100204.16;;;15.51;100.00
36328;BME280;22354;50.012;8.264;2022-09-09T04:09:33;100202.19;;;15.45;100.00
36328;BME280;22354;50.012;8.264;2022-09-09T04:11:58;100205.19;;;15.50;100.00
36328;BME280;22354;50.012;8.264;2022-09-09T04:14:24;100203.53;;;15.70;100.00
36328;BME280;22354;50.012;8.264;2022-09-09T04:16:54;100203.75;;;15.69;100.00
36328;BME280;22354;50.012;8.264;2022-09-09T04:19:21;100204.81;;;15.74;100.00
36328;BME280;22354;50.012;8.264;2022-09-09T04:21:46;100195.19;;;15.65;100.00
36328;BME280;22354;50.012;8.264;2022-09-09T04:24:11;100194.25;;;15.58;100.00
36328;BME280;22354;50.012;8.264;2022-09-09T04:26:36;100198.94;;;15.64;100.00
36328;BME280;22354;50.012;8.264;2022-09-09T04:29:03;100205.06;;;16.01;100.00
36328;BME280;22354;50.012;8.264;2022-09-09T04:31:29;100202.84;;;16.04;100.00
36328;BME280;22354;50.012;8.264;2022-09-09T04:33:54;100199.75;;;15.86;100.00
36328;BME280;22354;50.012;8.264;2022-09-09T04:36:19;100209.16;;;15.54;100.00
36328;BME280;22354;50.012;8.264;2022-09-09T04:38:45;100210.22;;;15.74;100.00
36328;BME280;22354;50.012;8.264;2022-09-09T04:41:11;100218.03;;;15.62;100.00
36328;BME280;22354;50.012;8.264;2022-09-09T04:43:38;100224.75;;;15.73;100.00
36328;BME280;22354;50.012;8.264;2022-09-09T04:46:03;100223.69;;;15.53;100.00
36328;BME280;22354;50.012;8.264;2022-09-09T04:48:28;100228.44;;;15.51;100.00
36328;BME280;22354;50.012;8.264;2022-09-09T04:51:01;100233.56;;;15.46;100.00
36328;BME280;22354;50.012;8.264;2022-09-09T04:53:27;100232.53;;;15.61;100.00
36328;BME280;22354;50.012;8.264;2022-09-09T04:58:35;100233.78;;;15.80;100.00
36328;BME280;22354;50.012;8.264;2022-09-09T05:01:09;100233.28;;;15.91;100.00
36328;BME280;22354;50.012;8.264;2022-09-09T05:03:35;100233.28;;;15.91;100.00
36328;BME280;22354;50.012;8.264;2022-09-09T05:06:08;100231.72;;;16.04;100.00
36328;BME280;22354;50.012;8.264;2022-09-09T05:08:36;100223.75;;;16.17;100.00
36328;BME280;22354;50.012;8.264;2022-09-09T05:11:01;100225.94;;;16.07;100.00
36328;BME280;22354;50.012;8.264;2022-09-09T05:13:27;100229.28;;;16.09;100.00
36328;BME280;22354;50.012;8.264;2022-09-09T05:15:53;100230.81;;;15.97;100.00
36328;BME280;22354;50.012;8.264;2022-09-09T05:18:19;100235.13;;;16.12;100.00
36328;BME280;22354;50.012;8.264;2022-09-09T05:20:45;100236.72;;;15.85;100.00
36328;BME280;22354;50.012;8.264;2022-09-09T05:23:10;100244.50;;;15.74;100.00
36328;BME280;22354;50.012;8.264;2022-09-09T05:25:37;100250.00;;;15.80;100.00
36328;BME280;22354;50.012;8.264;2022-09-09T05:28:02;100241.19;;;15.93;100.00
36328;BME280;22354;50.012;8.264;2022-09-09T05:30:28;100262.53;;;15.88;100.00
36328;BME280;22354;50.012;8.264;2022-09-09T05:32:56;100263.56;;;15.51;100.00
36328;BME280;22354;50.012;8.264;2022-09-09T05:35:21;100267.91;;;15.67;100.00
36328;BME280;22354;50.012;8.264;2022-09-09T05:37:46;100266.63;;;15.84;100.00
36328;BME280;22354;50.012;8.264;2022-09-09T05:40:12;100269.38;;;15.69;100.00
36328;BME280;22354;50.012;8.264;2022-09-09T05:42:38;100261.53;;;15.89;100.00
36328;BME280;22354;50.012;8.264;2022-09-09T05:45:04;100248.91;;;16.17;100.00
36328;BME280;22354;50.012;8.264;2022-09-09T05:47:29;100257.69;;;16.26;100.00
36328;BME280;22354;50.012;8.264;2022-09-09T05:49:55;100260.34;;;16.19;100.00
36328;BME280;22354;50.012;8.264;2022-09-09T05:52:20;100262.28;;;16.04;100.00
36328;BME280;22354;50.012;8.264;2022-09-09T05:54:45;100264.16;;;16.04;100.00
36328;BME280;22354;50.012;8.264;2022-09-09T05:57:11;100264.13;;;16.25;100.00
36328;BME280;22354;50.012;8.264;2022-09-09T05:59:36;100275.66;;;16.12;100.00
36328;BME280;22354;50.012;8.264;2022-09-09T06:02:02;100278.16;;;16.14;100.00
36328;BME280;22354;50.012;8.264;2022-09-09T06:04:27;100279.78;;;16.08;100.00
36328;BME280;22354;50.012;8.264;2022-09-09T06:06:52;100295.03;;;15.95;100.00
36328;BME280;22354;50.012;8.264;2022-09-09T06:09:18;100301.72;;;15.99;100.00
36328;BME280;22354;50.012;8.264;2022-09-09T06:11:43;100295.78;;;16.10;100.00
36328;BME280;22354;50.012;8.264;2022-09-09T06:14:09;100293.63;;;16.20;100.00
36328;BME280;22354;50.012;8.264;2022-09-09T06:16:35;100285.31;;;16.21;100.00
36328;BME280;22354;50.012;8.264;2022-09-09T06:19:02;100280.16;;;16.27;100.00
36328;BME280;22354;50.012;8.264;2022-09-09T06:21:33;100281.34;;;16.17;100.00
36328;BME280;22354;50.012;8.264;2022-09-09T06:23:59;100290.00;;;16.34;100.00
36328;BME280;22354;50.012;8.264;2022-09-09T06:26:27;100287.09;;;16.36;100.00
36328;BME280;22354;50.012;8.264;2022-09-09T06:28:55;100283.69;;;16.48;100.00
36328;BME280;22354;50.012;8.264;2022-09-09T06:31:22;100286.03;;;16.79;100.00
36328;BME280;22354;50.012;8.264;2022-09-09T06:33:49;100278.59;;;16.88;100.00
36328;BME280;22354;50.012;8.264;2022-09-09T06:36:17;100288.47;;;16.68;100.00
36328;BME280;22354;50.012;8.264;2022-09-09T06:38:44;100286.88;;;16.80;100.00
36328;BME280;22354;50.012;8.264;2022-09-09T06:41:12;100284.31;;;16.72;100.00
36328;BME280;22354;50.012;8.264;2022-09-09T06:43:38;100273.91;;;17.03;100.00
36328;BME280;22354;50.012;8.264;2022-09-09T06:46:06;100258.06;;;17.00;100.00
36328;BME280;22354;50.012;8.264;2022-09-09T06:48:33;100253.97;;;17.18;100.00
36328;BME280;22354;50.012;8.264;2022-09-09T06:51:02;100258.97;;;17.14;100.00
36328;BME280;22354;50.012;8.264;2022-09-09T06:53:27;100257.84;;;16.95;100.00
36328;BME280;22354;50.012;8.264;2022-09-09T06:55:53;100262.63;;;16.93;100.00
36328;BME280;22354;50.012;8.264;2022-09-09T06:58:19;100259.16;;;17.06;100.00
36328;BME280;22354;50.012;8.264;2022-09-09T07:00:45;100262.94;;;17.18;100.00
36328;BME280;22354;50.012;8.264;2022-09-09T07:03:10;100266.19;;;17.00;100.00
36328;BME280;22354;50.012;8.264;2022-09-09T07:05:36;100274.31;;;17.00;100.00
36328;BME280;22354;50.012;8.264;2022-09-09T07:08:02;100266.31;;;17.20;100.00
36328;BME280;22354;50.012;8.264;2022-09-09T07:10:27;100269.44;;;17.24;100.00
36328;BME280;22354;50.012;8.264;2022-09-09T07:12:53;100269.66;;;17.22;100.00
36328;BME280;22354;50.012;8.264;2022-09-09T07:15:18;100272.00;;;16.97;100.00
36328;BME280;22354;50.012;8.264;2022-09-09T07:17:44;100276.84;;;17.08;100.00
36328;BME280;22354;50.012;8.264;2022-09-09T07:20:10;100270.22;;;17.18;100.00
36328;BME280;22354;50.012;8.264;2022-09-09T07:22:36;100261.75;;;17.27;100.00
36328;BME280;22354;50.012;8.264;2022-09-09T07:25:01;100271.50;;;17.22;100.00
36328;BME280;22354;50.012;8.264;2022-09-09T07:27:27;100267.31;;;17.60;100.00
36328;BME280;22354;50.012;8.264;2022-09-09T07:29:52;100262.72;;;17.61;100.00
36328;BME280;22354;50.012;8.264;2022-09-09T07:32:19;100265.31;;;17.76;100.00
36328;BME280;22354;50.012;8.264;2022-09-09T07:34:45;100263.66;;;17.88;100.00
36328;BME280;22354;50.012;8.264;2022-09-09T07:37:11;100265.81;;;18.12;100.00
36328;BME280;22354;50.012;8.264;2022-09-09T07:39:38;100269.34;;;18.26;100.00
36328;BME280;22354;50.012;8.264;2022-09-09T07:42:03;100269.97;;;18.15;100.00
36328;BME280;22354;50.012;8.264;2022-09-09T07:44:30;100274.16;;;18.31;100.00
36328;BME280;22354;50.012;8.264;2022-09-09T07:46:57;100269.56;;;18.44;100.00
36328;BME280;22354;50.012;8.264;2022-09-09T07:49:22;100268.53;;;18.39;100.00
36328;BME280;22354;50.012;8.264;2022-09-09T07:51:48;100275.66;;;18.66;100.00
36328;BME280;22354;50.012;8.264;2022-09-09T07:54:16;100277.09;;;18.89;100.00
36328;BME280;22354;50.012;8.264;2022-09-09T07:56:45;100265.16;;;18.96;100.00
36328;BME280;22354;50.012;8.264;2022-09-09T07:59:10;100264.47;;;19.14;100.00
36328;BME280;22354;50.012;8.264;2022-09-09T08:01:39;100252.38;;;19.17;100.00
36328;BME280;22354;50.012;8.264;2022-09-09T08:04:07;100261.09;;;19.25;100.00
36328;BME280;22354;50.012;8.264;2022-09-09T08:06:39;100258.66;;;19.10;100.00
36328;BME280;22354;50.012;8.264;2022-09-09T08:09:06;100267.03;;;18.96;100.00
36328;BME280;22354;50.012;8.264;2022-09-09T08:11:31;100261.41;;;18.91;100.00
36328;BME280;22354;50.012;8.264;2022-09-09T08:13:58;100262.91;;;18.80;100.00
36328;BME280;22354;50.012;8.264;2022-09-09T08:16:27;100265.81;;;18.78;100.00
36328;BME280;22354;50.012;8.264;2022-09-09T08:18:53;100277.09;;;18.75;100.00
36328;BME280;22354;50.012;8.264;2022-09-09T08:21:26;100267.28;;;18.68;100.00
36328;BME280;22354;50.012;8.264;2022-09-09T08:23:53;100265.81;;;18.58;100.00
36328;BME280;22354;50.012;8.264;2022-09-09T08:26:21;100269.78;;;18.69;100.00
36328;BME280;22354;50.012;8.264;2022-09-09T08:28:48;100277.50;;;18.72;100.00
36328;BME280;22354;50.012;8.264;2022-09-09T08:31:18;100278.75;;;18.83;100.00
36328;BME280;22354;50.012;8.264;2022-09-09T08:33:44;100275.63;;;18.93;100.00
36328;BME280;22354;50.012;8.264;2022-09-09T08:36:20;100272.88;;;18.99;100.00
36328;BME280;22354;50.012;8.264;2022-09-09T08:38:51;100280.41;;;18.91;100.00
36328;BME280;22354;50.012;8.264;2022-09-09T08:49:47;100269.09;;;19.00;100.00
36328;BME280;22354;50.012;8.264;2022-09-09T08:52:52;100269.91;;;19.14;100.00
36328;BME280;22354;50.012;8.264;2022-09-09T08:57:52;100266.91;;;19.35;100.00
36328;BME280;22354;50.012;8.264;2022-09-09T09:00:19;100266.25;;;19.47;100.00
36328;BME280;22354;50.012;8.264;2022-09-09T09:06:04;100249.19;;;19.26;100.00
36328;BME280;22354;50.012;8.264;2022-09-09T09:09:00;100248.13;;;19.34;100.00
36328;BME280;22354;50.012;8.264;2022-09-09T09:11:26;100244.75;;;19.38;100.00
36328;BME280;22354;50.012;8.264;2022-09-09T09:13:58;100257.72;;;19.36;100.00
36328;BME280;22354;50.012;8.264;2022-09-09T09:16:34;100244.41;;;19.28;100.00
36328;BME280;22354;50.012;8.264;2022-09-09T09:19:01;100251.16;;;19.06;100.00
36328;BME280;22354;50.012;8.264;2022-09-09T09:21:39;100248.19;;;19.14;100.00
36328;BME280;22354;50.012;8.264;2022-09-09T09:24:19;100243.47;;;18.90;100.00
36328;BME280;22354;50.012;8.264;2022-09-09T09:26:45;100243.22;;;19.04;100.00
36328;BME280;22354;50.012;8.264;2022-09-09T09:29:13;100251.50;;;19.29;100.00
36328;BME280;22354;50.012;8.264;2022-09-09T09:31:50;100246.41;;;19.39;100.00
36328;BME280;22354;50.012;8.264;2022-09-09T09:34:17;100238.03;;;19.54;100.00
36328;BME280;22354;50.012;8.264;2022-09-09T09:36:53;100236.25;;;19.80;100.00
36328;BME280;22354;50.012;8.264;2022-09-09T09:39:29;100230.75;;;19.86;100.00
36328;BME280;22354;50.012;8.264;2022-09-09T09:41:55;100224.34;;;20.06;100.00
36328;BME280;22354;50.012;8.264;2022-09-09T09:44:27;100231.38;;;20.13;100.00
36328;BME280;22354;50.012;8.264;2022-09-09T09:47:23;100227.88;;;19.74;100.00
36328;BME280;22354;50.012;8.264;2022-09-09T09:49:59;100233.03;;;19.44;100.00
36328;BME280;22354;50.012;8.264;2022-09-09T09:52:26;100243.81;;;19.64;100.00
36328;BME280;22354;50.012;8.264;2022-09-09T09:54:54;100242.28;;;19.82;100.00
36328;BME280;22354;50.012;8.264;2022-09-09T09:57:24;100232.47;;;19.81;100.00
36328;BME280;22354;50.012;8.264;2022-09-09T10:02:39;100235.16;;;20.12;100.00
36328;BME280;22354;50.012;8.264;2022-09-09T10:07:40;100220.66;;;19.93;100.00
36328;BME280;22354;50.012;8.264;2022-09-09T10:10:08;100213.47;;;20.30;100.00
36328;BME280;22354;50.012;8.264;2022-09-09T10:18:38;100208.75;;;20.44;100.00
36328;BME280;22354;50.012;8.264;2022-09-09T10:24:11;100213.41;;;20.12;100.00
36328;BME280;22354;50.012;8.264;2022-09-09T10:26:50;100207.25;;;19.98;100.00
36328;BME280;22354;50.012;8.264;2022-09-09T10:35:35;100183.59;;;21.10;100.00
36328;BME280;22354;50.012;8.264;2022-09-09T10:38:44;100174.72;;;21.15;100.00
36328;BME280;22354;50.012;8.264;2022-09-09T10:57:21;100163.94;;;21.68;100.00
36328;BME280;22354;50.012;8.264;2022-09-09T10:59:52;100170.84;;;21.41;100.00
36328;BME280;22354;50.012;8.264;2022-09-09T11:02:29;100169.59;;;21.25;100.00
36328;BME280;22354;50.012;8.264;2022-09-09T11:05:04;100172.91;;;21.27;100.00
36328;BME280;22354;50.012;8.264;2022-09-09T11:07:40;100174.28;;;21.48;100.00
36328;BME280;22354;50.012;8.264;2022-09-09T11:10:18;100156.34;;;21.70;100.00
36328;BME280;22354;50.012;8.264;2022-09-09T11:12:50;100167.06;;;21.84;100.00
36328;BME280;22354;50.012;8.264;2022-09-09T11:15:22;100176.66;;;22.16;100.00
36328;BME280;22354;50.012;8.264;2022-09-09T11:17:54;100172.63;;;22.42;100.00
36328;BME280;22354;50.012;8.264;2022-09-09T11:20:21;100174.75;;;22.52;100.00
36328;BME280;22354;50.012;8.264;2022-09-09T11:22:56;100161.22;;;22.10;100.00
36328;BME280;22354;50.012;8.264;2022-09-09T11:25:26;100177.63;;;22.45;100.00
36328;BME280;22354;50.012;8.264;2022-09-09T11:38:44;100165.72;;;22.63;100.00
36328;BME280;22354;50.012;8.264;2022-09-09T11:41:10;100162.81;;;21.99;100.00
36328;BME280;22354;50.012;8.264;2022-09-09T11:43:44;100166.75;;;22.03;100.00
36328;BME280;22354;50.012;8.264;2022-09-09T11:46:12;100160.19;;;21.81;100.00
36328;BME280;22354;50.012;8.264;2022-09-09T11:48:43;100167.41;;;21.75;100.00
36328;BME280;22354;50.012;8.264;2022-09-09T11:51:29;100171.91;;;21.82;100.00
36328;BME280;22354;50.012;8.264;2022-09-09T11:54:00;100162.78;;;21.76;100.00
36328;BME280;22354;50.012;8.264;2022-09-09T11:56:32;100173.69;;;21.76;100.00
36328;BME280;22354;50.012;8.264;2022-09-09T11:59:27;100173.53;;;21.71;100.00
36328;BME280;22354;50.012;8.264;2022-09-09T12:02:11;100170.72;;;21.47;100.00
36328;BME280;22354;50.012;8.264;2022-09-09T12:04:49;100173.63;;;21.53;100.00
36328;BME280;22354;50.012;8.264;2022-09-09T12:12:40;100190.84;;;20.98;100.00
36328;BME280;22354;50.012;8.264;2022-09-09T12:17:45;100189.94;;;20.43;100.00
36328;BME280;22354;50.012;8.264;2022-09-09T12:20:16;100191.00;;;20.42;100.00
36328;BME280;22354;50.012;8.264;2022-09-09T12:26:27;100193.31;;;20.38;100.00
36328;BME280;22354;50.012;8.264;2022-09-09T12:31:10;100189.72;;;20.19;100.00
36328;BME280;22354;50.012;8.264;2022-09-09T12:33:43;100189.91;;;20.18;100.00
36328;BME280;22354;50.012;8.264;2022-09-09T12:36:30;100194.16;;;20.14;100.00
36328;BME280;22354;50.012;8.264;2022-09-09T12:39:10;100184.69;;;20.41;100.00
36328;BME280;22354;50.012;8.264;2022-09-09T12:41:36;100178.97;;;20.74;100.00
36328;BME280;22354;50.012;8.264;2022-09-09T12:44:06;100178.97;;;20.74;100.00
36328;BME280;22354;50.012;8.264;2022-09-09T12:46:36;100180.75;;;20.80;100.00
36328;BME280;22354;50.012;8.264;2022-09-09T12:49:03;100172.31;;;21.25;100.00
36328;BME280;22354;50.012;8.264;2022-09-09T12:51:31;100175.78;;;20.96;100.00
36328;BME280;22354;50.012;8.264;2022-09-09T12:53:58;100181.00;;;20.60;100.00
36328;BME280;22354;50.012;8.264;2022-09-09T12:56:27;100169.47;;;21.92;100.00
36328;BME280;22354;50.012;8.264;2022-09-09T12:58:56;100168.44;;;22.63;100.00
36328;BME280;22354;50.012;8.264;2022-09-09T13:01:30;100168.69;;;22.61;100.00
36328;BME280;22354;50.012;8.264;2022-09-09T13:03:57;100158.16;;;22.53;100.00
36328;BME280;22354;50.012;8.264;2022-09-09T13:08:51;100145.53;;;22.64;100.00
36328;BME280;22354;50.012;8.264;2022-09-09T13:11:29;100147.44;;;22.75;100.00
36328;BME280;22354;50.012;8.264;2022-09-09T13:13:57;100164.31;;;23.24;100.00
36328;BME280;22354;50.012;8.264;2022-09-09T13:16:31;100161.91;;;23.68;100.00
36328;BME280;22354;50.012;8.264;2022-09-09T13:19:08;100154.38;;;23.46;100.00
36328;BME280;22354;50.012;8.264;2022-09-09T13:21:35;100153.38;;;23.52;100.00
36328;BME280;22354;50.012;8.264;2022-09-09T13:24:04;100151.38;;;22.56;100.00
36328;BME280;22354;50.012;8.264;2022-09-09T13:26:31;100145.44;;;22.35;100.00
36328;BME280;22354;50.012;8.264;2022-09-09T13:29:17;100142.34;;;22.08;100.00
36328;BME280;22354;50.012;8.264;2022-09-09T13:31:43;100141.22;;;21.98;100.00
36328;BME280;22354;50.012;8.264;2022-09-09T13:34:30;100146.19;;;21.77;100.00
36328;BME280;22354;50.012;8.264;2022-09-09T13:37:01;100138.84;;;21.48;100.00
36328;BME280;22354;50.012;8.264;2022-09-09T13:39:27;100144.50;;;21.16;100.00
36328;BME280;22354;50.012;8.264;2022-09-09T13:41:52;100151.25;;;21.14;100.00
36328;BME280;22354;50.012;8.264;2022-09-09T13:44:38;100160.84;;;21.16;100.00
36328;BME280;22354;50.012;8.264;2022-09-09T13:47:18;100159.38;;;20.66;100.00
36328;BME280;22354;50.012;8.264;2022-09-09T13:49:47;100164.44;;;20.62;100.00
36328;BME280;22354;50.012;8.264;2022-09-09T13:52:15;100163.75;;;20.67;100.00
36328;BME280;22354;50.012;8.264;2022-09-09T13:54:42;100157.63;;;20.53;100.00
36328;BME280;22354;50.012;8.264;2022-09-09T13:57:18;100167.94;;;20.44;100.00
36328;BME280;22354;50.012;8.264;2022-09-09T13:59:45;100169.03;;;20.18;100.00
36328;BME280;22354;50.012;8.264;2022-09-09T14:02:11;100179.25;;;20.16;100.00
36328;BME280;22354;50.012;8.264;2022-09-09T14:04:36;100173.22;;;20.14;100.00
36328;BME280;22354;50.012;8.264;2022-09-09T14:07:02;100170.56;;;20.08;100.00
36328;BME280;22354;50.012;8.264;2022-09-09T14:09:28;100176.72;;;19.96;100.00
36328;BME280;22354;50.012;8.264;2022-09-09T14:11:53;100189.47;;;19.96;100.00
36328;BME280;22354;50.012;8.264;2022-09-09T14:14:20;100197.97;;;19.74;100.00
36328;BME280;22354;50.012;8.264;2022-09-09T14:16:45;100199.09;;;19.67;100.00
36328;BME280;22354;50.012;8.264;2022-09-09T14:19:10;100212.41;;;19.30;100.00
36328;BME280;22354;50.012;8.264;2022-09-09T14:21:35;100220.34;;;19.25;100.00
36328;BME280;22354;50.012;8.264;2022-09-09T14:24:01;100218.63;;;19.37;100.00
36328;BME280;22354;50.012;8.264;2022-09-09T14:26:26;100223.00;;;19.45;100.00
36328;BME280;22354;50.012;8.264;2022-09-09T14:28:53;100221.63;;;19.74;100.00
36328;BME280;22354;50.012;8.264;2022-09-09T14:31:19;100209.97;;;19.67;100.00
36328;BME280;22354;50.012;8.264;2022-09-09T14:33:44;100205.84;;;19.58;100.00